createdAt,value
2017-10-06T22:00:20.557Z,95520.59
2017-10-06T22:02:52.941Z,95528.61
2017-10-06T22:05:26.280Z,95533.28
2017-10-06T22:08:01.498Z,95534.53
2017-10-06T22:10:35.469Z,95536.73
2017-10-06T22:13:07.728Z,95534.41
2017-10-06T22:15:47.715Z,95536.64
2017-10-06T22:18:20.708Z,95532.95
2017-10-06T22:20:52.873Z,95540.81
2017-10-06T22:23:26.473Z,95530.28
2017-10-06T22:25:58.664Z,95530.69
2017-10-06T22:28:30.570Z,95525.73
2017-10-06T22:31:17.200Z,95539.88
2017-10-06T22:33:48.691Z,95532.87
2017-10-06T22:36:20.962Z,95535.17
2017-10-06T22:38:53.495Z,95533.09
2017-10-06T22:41:31.527Z,95534.21
2017-10-06T22:44:03.947Z,95524.79
2017-10-06T22:46:36.738Z,95535.52
2017-10-06T22:49:07.460Z,95543.55
2017-10-06T22:51:38.086Z,95540.47
2017-10-06T22:54:09.409Z,95540.50
2017-10-06T22:56:40.990Z,95539.87
2017-10-06T22:59:12.473Z,95538.95
2017-10-06T23:01:44.529Z,95537.64
2017-10-06T23:04:22.026Z,95551.45
2017-10-06T23:07:01.062Z,95554.41
2017-10-06T23:09:38.488Z,95552.89
2017-10-06T23:12:19.137Z,95553.00
2017-10-06T23:14:50.717Z,95548.67
2017-10-06T23:17:21.784Z,95555.45
2017-10-06T23:19:52.897Z,95546.95
2017-10-06T23:22:23.900Z,95558.08
2017-10-06T23:24:55.305Z,95557.82
2017-10-06T23:27:29.527Z,95563.99
2017-10-06T23:30:01.361Z,95561.80
2017-10-06T23:32:32.635Z,95566.02
2017-10-06T23:35:08.001Z,95568.65
2017-10-06T23:37:39.018Z,95565.00
2017-10-06T23:40:11.680Z,95561.75
2017-10-06T23:42:42.851Z,95553.27
2017-10-06T23:45:14.525Z,95566.09
2017-10-06T23:47:45.847Z,95562.23
2017-10-06T23:50:17.444Z,95566.74
2017-10-06T23:52:48.667Z,95565.38
2017-10-06T23:55:24.892Z,95568.95
2017-10-06T23:57:58.395Z,95567.91
